sensor_id;sensor_type;location;lat;lon;timestamp;pressure;altitude;pressure_sealevel;temperature;humidity
15694;BME280;7947;48.834;9.132;2023-08-07T00:00:44;98000.41;;;13.83;84.19
15694;BME280;7947;48.834;9.132;2023-08-07T00:03:47;98005.28;;;13.81;83.90
15694;BME280;7947;48.834;9.132;2023-08-07T00:06:51;98010.06;;;13.84;82.96
15694;BME280;7947;48.834;9.132;2023-08-07T00:09:54;98006.59;;;13.84;83.76
15694;BME280;7947;48.834;9.132;2023-08-07T00:12:57;97999.28;;;13.84;83.00
15694;BME280;7947;48.834;9.132;2023-08-07T00:15:59;98013.88;;;13.83;82.37
15694;BME280;7947;48.834;9.132;2023-08-07T00:19:02;98012.88;;;13.79;82.62
15694;BME280;7947;48.834;9.132;2023-08-07T00:22:07;98015.66;;;13.74;83.26
15694;BME280;7947;48.834;9.132;2023-08-07T00:25:09;98012.06;;;13.79;83.26
15694;BME280;7947;48.834;9.132;2023-08-07T00:28:12;98017.25;;;13.75;83.04
15694;BME280;7947;48.834;9.132;2023-08-07T00:31:15;98025.63;;;13.74;83.30
15694;BME280;7947;48.834;9.132;2023-08-07T00:34:18;98021.25;;;13.78;82.66
15694;BME280;7947;48.834;9.132;2023-08-07T00:37:22;98021.25;;;13.78;82.52
15694;BME280;7947;48.834;9.132;2023-08-07T00:40:25;98034.81;;;13.86;81.64
15694;BME280;7947;48.834;9.132;2023-08-07T00:43:28;98031.06;;;13.87;80.63
15694;BME280;7947;48.834;9.132;2023-08-07T00:46:31;98032.44;;;13.85;80.63
15694;BME280;7947;48.834;9.132;2023-08-07T00:49:34;98029.53;;;13.81;81.04
15694;BME280;7947;48.834;9.132;2023-08-07T00:52:39;98032.63;;;13.88;80.85
15694;BME280;7947;48.834;9.132;2023-08-07T00:55:42;98041.41;;;13.80;81.31
15694;BME280;7947;48.834;9.132;2023-08-07T00:58:45;98028.44;;;13.82;81.02
15694;BME280;7947;48.834;9.132;2023-08-07T01:01:48;98041.34;;;13.85;80.40
15694;BME280;7947;48.834;9.132;2023-08-07T01:04:51;98044.53;;;13.87;80.50
15694;BME280;7947;48.834;9.132;2023-08-07T01:07:56;98036.75;;;13.99;79.37
15694;BME280;7947;48.834;9.132;2023-08-07T01:11:11;98035.16;;;13.98;78.96
15694;BME280;7947;48.834;9.132;2023-08-07T01:14:25;98036.75;;;13.99;79.23
15694;BME280;7947;48.834;9.132;2023-08-07T01:17:31;98051.44;;;13.93;79.73
15694;BME280;7947;48.834;9.132;2023-08-07T01:20:36;98049.63;;;13.89;78.78
15694;BME280;7947;48.834;9.132;2023-08-07T01:23:40;98051.59;;;13.83;78.92
15694;BME280;7947;48.834;9.132;2023-08-07T01:26:45;98039.63;;;13.89;78.93
15694;BME280;7947;48.834;9.132;2023-08-07T01:29:52;98035.84;;;13.90;78.61
15694;BME280;7947;48.834;9.132;2023-08-07T01:33:01;98048.44;;;13.95;77.59
15694;BME280;7947;48.834;9.132;2023-08-07T01:36:08;98067.81;;;13.97;77.78
15694;BME280;7947;48.834;9.132;2023-08-07T01:39:14;98043.44;;;14.02;77.25
15694;BME280;7947;48.834;9.132;2023-08-07T01:42:19;98033.84;;;13.96;76.62
15694;BME280;7947;48.834;9.132;2023-08-07T01:45:23;98037.44;;;13.91;76.77
15694;BME280;7947;48.834;9.132;2023-08-07T01:48:26;98040.66;;;13.93;76.63
15694;BME280;7947;48.834;9.132;2023-08-07T01:51:29;98049.00;;;13.92;76.73
15694;BME280;7947;48.834;9.132;2023-08-07T01:54:33;98034.63;;;13.96;76.39
15694;BME280;7947;48.834;9.132;2023-08-07T01:57:36;98051.22;;;13.90;75.95
15694;BME280;7947;48.834;9.132;2023-08-07T02:00:39;98051.50;;;13.88;75.54
15694;BME280;7947;48.834;9.132;2023-08-07T02:03:41;98047.59;;;13.81;75.87
15694;BME280;7947;48.834;9.132;2023-08-07T02:06:44;98031.25;;;13.91;75.33
15694;BME280;7947;48.834;9.132;2023-08-07T02:09:49;98047.22;;;13.87;75.78
15694;BME280;7947;48.834;9.132;2023-08-07T02:12:51;98055.81;;;13.89;75.54
15694;BME280;7947;48.834;9.132;2023-08-07T02:15:54;98047.94;;;13.93;75.04
15694;BME280;7947;48.834;9.132;2023-08-07T02:18:57;98055.09;;;13.84;75.87
15694;BME280;7947;48.834;9.132;2023-08-07T02:22:01;98058.06;;;13.82;76.50
15694;BME280;7947;48.834;9.132;2023-08-07T02:25:06;98080.44;;;13.83;76.29
15694;BME280;7947;48.834;9.132;2023-08-07T02:28:09;98072.97;;;13.80;77.23
15694;BME280;7947;48.834;9.132;2023-08-07T02:31:12;98074.34;;;13.77;77.90
15694;BME280;7947;48.834;9.132;2023-08-07T02:34:15;98072.03;;;13.71;78.81
15694;BME280;7947;48.834;9.132;2023-08-07T02:37:17;98067.75;;;13.70;78.36
15694;BME280;7947;48.834;9.132;2023-08-07T02:40:23;98071.31;;;13.65;77.85
15694;BME280;7947;48.834;9.132;2023-08-07T02:43:26;98060.94;;;13.58;78.60
15694;BME280;7947;48.834;9.132;2023-08-07T02:46:30;98073.31;;;13.59;78.13
15694;BME280;7947;48.834;9.132;2023-08-07T02:49:32;98077.31;;;13.62;77.85
15694;BME280;7947;48.834;9.132;2023-08-07T02:52:35;98070.63;;;13.59;77.93
15694;BME280;7947;48.834;9.132;2023-08-07T02:55:43;98080.41;;;13.69;77.18
15694;BME280;7947;48.834;9.132;2023-08-07T02:58:46;98077.94;;;13.73;76.14
15694;BME280;7947;48.834;9.132;2023-08-07T03:01:50;98077.72;;;13.69;75.88
15694;BME280;7947;48.834;9.132;2023-08-07T03:04:53;98088.47;;;13.55;76.83
15694;BME280;7947;48.834;9.132;2023-08-07T03:07:55;98083.00;;;13.61;76.08
15694;BME280;7947;48.834;9.132;2023-08-07T03:11:00;98085.09;;;13.64;75.86
15694;BME280;7947;48.834;9.132;2023-08-07T03:14:02;98077.41;;;13.71;75.65
15694;BME280;7947;48.834;9.132;2023-08-07T03:17:06;98071.31;;;13.65;75.67
15694;BME280;7947;48.834;9.132;2023-08-07T03:20:09;98074.91;;;13.61;75.63
15694;BME280;7947;48.834;9.132;2023-08-07T03:23:12;98075.44;;;13.63;75.65
15694;BME280;7947;48.834;9.132;2023-08-07T03:26:16;98090.13;;;13.70;75.53
15694;BME280;7947;48.834;9.132;2023-08-07T03:29:20;98083.91;;;13.70;75.54
15694;BME280;7947;48.834;9.132;2023-08-07T03:32:23;98095.09;;;13.77;75.14
15694;BME280;7947;48.834;9.132;2023-08-07T03:35:26;98089.00;;;13.71;75.17
15694;BME280;7947;48.834;9.132;2023-08-07T03:38:29;98085.81;;;13.69;75.81
15694;BME280;7947;48.834;9.132;2023-08-07T03:41:33;98075.91;;;13.65;76.27
15694;BME280;7947;48.834;9.132;2023-08-07T03:44:36;98082.41;;;13.64;75.69
15694;BME280;7947;48.834;9.132;2023-08-07T03:47:39;98096.59;;;13.69;75.50
15694;BME280;7947;48.834;9.132;2023-08-07T03:50:42;98094.41;;;13.71;75.84
15694;BME280;7947;48.834;9.132;2023-08-07T03:53:45;98094.50;;;13.66;76.23
15694;BME280;7947;48.834;9.132;2023-08-07T03:56:49;98089.19;;;13.61;76.22
15694;BME280;7947;48.834;9.132;2023-08-07T03:59:52;98085.19;;;13.58;76.40
15694;BME280;7947;48.834;9.132;2023-08-07T04:02:55;98086.97;;;13.63;75.86
15694;BME280;7947;48.834;9.132;2023-08-07T04:05:58;98092.78;;;13.56;76.41
15694;BME280;7947;48.834;9.132;2023-08-07T04:09:02;98080.59;;;13.59;75.68
15694;BME280;7947;48.834;9.132;2023-08-07T04:12:07;98090.84;;;13.57;75.95
15694;BME280;7947;48.834;9.132;2023-08-07T04:15:10;98101.13;;;13.55;76.08
15694;BME280;7947;48.834;9.132;2023-08-07T04:18:13;98097.44;;;13.51;76.61
15694;BME280;7947;48.834;9.132;2023-08-07T04:21:16;98098.16;;;13.56;76.01
15694;BME280;7947;48.834;9.132;2023-08-07T04:24:19;98104.47;;;13.66;74.95
15694;BME280;7947;48.834;9.132;2023-08-07T04:27:23;98105.66;;;13.59;75.24
15694;BME280;7947;48.834;9.132;2023-08-07T04:30:26;98104.56;;;13.61;75.78
15694;BME280;7947;48.834;9.132;2023-08-07T04:33:29;98113.63;;;13.65;75.58
15694;BME280;7947;48.834;9.132;2023-08-07T04:36:32;98112.66;;;13.61;75.72
15694;BME280;7947;48.834;9.132;2023-08-07T04:39:35;98114.84;;;13.58;75.92
15694;BME280;7947;48.834;9.132;2023-08-07T04:42:39;98118.81;;;13.61;76.11
15694;BME280;7947;48.834;9.132;2023-08-07T04:45:43;98123.25;;;13.71;75.32
15694;BME280;7947;48.834;9.132;2023-08-07T04:48:47;98124.56;;;13.73;74.88
15694;BME280;7947;48.834;9.132;2023-08-07T04:51:50;98119.28;;;13.82;74.56
15694;BME280;7947;48.834;9.132;2023-08-07T04:54:52;98119.50;;;13.85;74.48
15694;BME280;7947;48.834;9.132;2023-08-07T04:57:57;98123.78;;;13.86;74.42
15694;BME280;7947;48.834;9.132;2023-08-07T05:01:00;98119.00;;;13.83;75.14
15694;BME280;7947;48.834;9.132;2023-08-07T05:04:05;98127.97;;;13.79;75.77
15694;BME280;7947;48.834;9.132;2023-08-07T05:07:08;98126.06;;;13.79;75.48
15694;BME280;7947;48.834;9.132;2023-08-07T05:10:14;98128.16;;;13.82;75.84
15694;BME280;7947;48.834;9.132;2023-08-07T05:13:18;98137.66;;;13.80;76.10
15694;BME280;7947;48.834;9.132;2023-08-07T05:16:21;98130.09;;;13.82;76.23
15694;BME280;7947;48.834;9.132;2023-08-07T05:19:25;98131.38;;;13.84;76.27
15694;BME280;7947;48.834;9.132;2023-08-07T05:22:29;98138.94;;;13.82;76.80
15694;BME280;7947;48.834;9.132;2023-08-07T05:25:32;98128.41;;;13.86;77.00
15694;BME280;7947;48.834;9.132;2023-08-07T05:28:36;98136.59;;;13.94;75.69
15694;BME280;7947;48.834;9.132;2023-08-07T05:31:39;98137.50;;;14.03;75.26
15694;BME280;7947;48.834;9.132;2023-08-07T05:34:42;98144.00;;;14.02;75.89
15694;BME280;7947;48.834;9.132;2023-08-07T05:37:44;98151.22;;;14.07;75.84
15694;BME280;7947;48.834;9.132;2023-08-07T05:40:47;98136.81;;;14.11;75.39
15694;BME280;7947;48.834;9.132;2023-08-07T05:43:52;98139.66;;;14.20;74.79
15694;BME280;7947;48.834;9.132;2023-08-07T05:46:55;98150.13;;;14.21;74.83
15694;BME280;7947;48.834;9.132;2023-08-07T05:49:57;98148.66;;;14.29;74.01
15694;BME280;7947;48.834;9.132;2023-08-07T05:53:00;98154.28;;;14.32;73.85
15694;BME280;7947;48.834;9.132;2023-08-07T05:56:04;98150.19;;;14.48;73.65
15694;BME280;7947;48.834;9.132;2023-08-07T05:59:08;98160.41;;;14.52;72.91
15694;BME280;7947;48.834;9.132;2023-08-07T06:02:11;98160.19;;;14.48;73.09
15694;BME280;7947;48.834;9.132;2023-08-07T06:05:14;98157.72;;;14.52;72.52
15694;BME280;7947;48.834;9.132;2023-08-07T06:08:17;98166.59;;;14.52;72.75
15694;BME280;7947;48.834;9.132;2023-08-07T06:11:20;98165.81;;;14.52;73.29
15694;BME280;7947;48.834;9.132;2023-08-07T06:14:25;98170.59;;;14.55;72.82
15694;BME280;7947;48.834;9.132;2023-08-07T06:17:28;98181.00;;;14.61;73.13
15694;BME280;7947;48.834;9.132;2023-08-07T06:20:31;98189.59;;;14.63;72.98
15694;BME280;7947;48.834;9.132;2023-08-07T06:23:33;98189.09;;;14.61;73.18
15694;BME280;7947;48.834;9.132;2023-08-07T06:26:36;98192.69;;;14.57;73.66
15694;BME280;7947;48.834;9.132;2023-08-07T06:29:41;98187.19;;;14.62;73.95
15694;BME280;7947;48.834;9.132;2023-08-07T06:32:43;98202.66;;;14.56;73.98
15694;BME280;7947;48.834;9.132;2023-08-07T06:35:47;98193.59;;;14.66;73.69
15694;BME280;7947;48.834;9.132;2023-08-07T06:38:50;98187.28;;;14.70;73.61
15694;BME280;7947;48.834;9.132;2023-08-07T06:41:53;98197.22;;;14.75;73.33
15694;BME280;7947;48.834;9.132;2023-08-07T06:44:58;98197.72;;;14.77;71.93
15694;BME280;7947;48.834;9.132;2023-08-07T06:48:00;98201.19;;;14.77;72.54
15694;BME280;7947;48.834;9.132;2023-08-07T06:51:03;98198.22;;;14.79;73.36
15694;BME280;7947;48.834;9.132;2023-08-07T06:54:06;98195.00;;;14.90;72.50
15694;BME280;7947;48.834;9.132;2023-08-07T06:57:09;98194.88;;;15.09;70.98
15694;BME280;7947;48.834;9.132;2023-08-07T07:00:15;98210.69;;;15.43;70.73
15694;BME280;7947;48.834;9.132;2023-08-07T07:03:18;98206.47;;;15.72;69.47
15694;BME280;7947;48.834;9.132;2023-08-07T07:06:21;98206.59;;;15.89;65.50
15694;BME280;7947;48.834;9.132;2023-08-07T07:09:27;98209.22;;;15.94;65.65
15694;BME280;7947;48.834;9.132;2023-08-07T07:12:30;98216.78;;;16.06;64.83
15694;BME280;7947;48.834;9.132;2023-08-07T07:15:35;98218.50;;;16.02;64.31
15694;BME280;7947;48.834;9.132;2023-08-07T07:18:38;98217.25;;;15.86;65.39
15694;BME280;7947;48.834;9.132;2023-08-07T07:21:41;98229.00;;;15.81;64.86
15694;BME280;7947;48.834;9.132;2023-08-07T07:24:44;98227.13;;;15.68;65.84
15694;BME280;7947;48.834;9.132;2023-08-07T07:27:47;98229.44;;;15.61;65.87
15694;BME280;7947;48.834;9.132;2023-08-07T07:30:51;98236.56;;;15.57;66.78
15694;BME280;7947;48.834;9.132;2023-08-07T07:33:54;98235.75;;;15.57;66.82
15694;BME280;7947;48.834;9.132;2023-08-07T07:36:57;98238.97;;;15.59;67.41
15694;BME280;7947;48.834;9.132;2023-08-07T07:40:00;98239.88;;;15.54;68.09
15694;BME280;7947;48.834;9.132;2023-08-07T07:43:03;98234.34;;;15.59;68.34
15694;BME280;7947;48.834;9.132;2023-08-07T07:46:07;98233.44;;;15.64;68.98
15694;BME280;7947;48.834;9.132;2023-08-07T07:49:10;98228.28;;;15.76;67.23
15694;BME280;7947;48.834;9.132;2023-08-07T07:52:13;98239.81;;;15.81;65.51
15694;BME280;7947;48.834;9.132;2023-08-07T07:55:16;98235.50;;;15.80;66.04
15694;BME280;7947;48.834;9.132;2023-08-07T07:58:20;98238.69;;;15.82;66.39
15694;BME280;7947;48.834;9.132;2023-08-07T08:01:24;98244.28;;;15.86;65.59
15694;BME280;7947;48.834;9.132;2023-08-07T08:04:27;98246.19;;;15.85;63.67
15694;BME280;7947;48.834;9.132;2023-08-07T08:07:30;98246.69;;;15.87;64.03
15694;BME280;7947;48.834;9.132;2023-08-07T08:10:35;98254.44;;;15.80;64.06
15694;BME280;7947;48.834;9.132;2023-08-07T08:13:38;98249.28;;;15.92;63.15
15694;BME280;7947;48.834;9.132;2023-08-07T08:16:44;98245.78;;;15.92;64.51
15694;BME280;7947;48.834;9.132;2023-08-07T08:19:47;98252.34;;;15.99;65.16
15694;BME280;7947;48.834;9.132;2023-08-07T08:22:52;98253.53;;;16.07;65.54
15694;BME280;7947;48.834;9.132;2023-08-07T08:25:54;98261.41;;;16.17;63.33
15694;BME280;7947;48.834;9.132;2023-08-07T08:28:57;98260.09;;;16.14;64.17
15694;BME280;7947;48.834;9.132;2023-08-07T08:32:02;98259.59;;;16.12;64.75
15694;BME280;7947;48.834;9.132;2023-08-07T08:35:06;98256.47;;;16.19;61.88
15694;BME280;7947;48.834;9.132;2023-08-07T08:38:09;98252.56;;;16.25;61.91
15694;BME280;7947;48.834;9.132;2023-08-07T08:41:12;98255.53;;;16.46;59.56
15694;BME280;7947;48.834;9.132;2023-08-07T08:44:17;98268.13;;;16.64;60.14
15694;BME280;7947;48.834;9.132;2023-08-07T08:47:22;98259.31;;;16.89;58.31
15694;BME280;7947;48.834;9.132;2023-08-07T08:50:26;98270.50;;;16.96;58.92
15694;BME280;7947;48.834;9.132;2023-08-07T08:53:29;98272.63;;;17.07;58.98
15694;BME280;7947;48.834;9.132;2023-08-07T08:56:32;98276.31;;;17.11;56.87
15694;BME280;7947;48.834;9.132;2023-08-07T08:59:36;98269.28;;;17.10;56.47
15694;BME280;7947;48.834;9.132;2023-08-07T09:02:40;98277.09;;;17.12;56.67
15694;BME280;7947;48.834;9.132;2023-08-07T09:05:44;98279.66;;;17.08;57.88
15694;BME280;7947;48.834;9.132;2023-08-07T09:08:48;98282.47;;;17.03;57.72
15694;BME280;7947;48.834;9.132;2023-08-07T09:11:54;98283.94;;;17.01;59.05
15694;BME280;7947;48.834;9.132;2023-08-07T09:15:02;98278.34;;;16.97;59.51
15694;BME280;7947;48.834;9.132;2023-08-07T09:18:08;98284.91;;;17.13;57.93
15694;BME280;7947;48.834;9.132;2023-08-07T09:21:12;98295.91;;;17.08;58.48
15694;BME280;7947;48.834;9.132;2023-08-07T09:24:18;98285.06;;;17.08;58.37
15694;BME280;7947;48.834;9.132;2023-08-07T09:27:24;98289.72;;;17.17;57.60
15694;BME280;7947;48.834;9.132;2023-08-07T09:30:28;98285.88;;;17.17;59.10
15694;BME280;7947;48.834;9.132;2023-08-07T09:33:33;98291.97;;;17.23;58.48
15694;BME280;7947;48.834;9.132;2023-08-07T09:36:36;98298.50;;;17.22;59.55
15694;BME280;7947;48.834;9.132;2023-08-07T09:39:40;98303.66;;;17.32;56.60
15694;BME280;7947;48.834;9.132;2023-08-07T09:42:42;98309.16;;;17.49;54.55
15694;BME280;7947;48.834;9.132;2023-08-07T09:45:45;98306.16;;;17.59;55.41
15694;BME280;7947;48.834;9.132;2023-08-07T09:48:50;98308.88;;;17.59;54.68
15694;BME280;7947;48.834;9.132;2023-08-07T09:51:53;98312.34;;;17.51;56.44
15694;BME280;7947;48.834;9.132;2023-08-07T09:54:56;98317.06;;;17.37;56.68
15694;BME280;7947;48.834;9.132;2023-08-07T09:58:00;98323.72;;;17.31;57.89
15694;BME280;7947;48.834;9.132;2023-08-07T10:01:04;98319.44;;;17.30;57.92
15694;BME280;7947;48.834;9.132;2023-08-07T10:04:10;98310.78;;;17.59;57.83
15694;BME280;7947;48.834;9.132;2023-08-07T10:07:17;98304.44;;;18.06;54.58
15694;BME280;7947;48.834;9.132;2023-08-07T10:10:20;98294.22;;;18.37;54.05
15694;BME280;7947;48.834;9.132;2023-08-07T10:13:23;98303.53;;;18.53;53.17
15694;BME280;7947;48.834;9.132;2023-08-07T10:16:40;98308.16;;;18.53;52.71
15694;BME280;7947;48.834;9.132;2023-08-07T10:19:45;98313.59;;;18.44;52.23
15694;BME280;7947;48.834;9.132;2023-08-07T10:22:48;98310.22;;;18.30;52.36
15694;BME280;7947;48.834;9.132;2023-08-07T10:25:53;98309.72;;;18.20;51.01
15694;BME280;7947;48.834;9.132;2023-08-07T10:28:59;98319.47;;;18.03;50.95
15694;BME280;7947;48.834;9.132;2023-08-07T10:32:04;98311.13;;;17.83;52.51
15694;BME280;7947;48.834;9.132;2023-08-07T10:35:09;98331.06;;;17.61;53.26
15694;BME280;7947;48.834;9.132;2023-08-07T10:38:12;98318.09;;;17.50;53.20
15694;BME280;7947;48.834;9.132;2023-08-07T10:41:15;98327.13;;;17.45;53.11
15694;BME280;7947;48.834;9.132;2023-08-07T10:44:19;98331.53;;;17.33;53.96
15694;BME280;7947;48.834;9.132;2023-08-07T10:47:33;98319.91;;;17.32;54.17
15694;BME280;7947;48.834;9.132;2023-08-07T10:50:50;98322.47;;;17.37;55.29
15694;BME280;7947;48.834;9.132;2023-08-07T10:53:53;98322.31;;;17.42;56.46
15694;BME280;7947;48.834;9.132;2023-08-07T10:56:59;98313.38;;;17.72;54.64
15694;BME280;7947;48.834;9.132;2023-08-07T11:00:03;98312.94;;;18.13;53.04
15694;BME280;7947;48.834;9.132;2023-08-07T11:03:09;98319.63;;;18.16;50.03
15694;BME280;7947;48.834;9.132;2023-08-07T11:06:13;98318.84;;;17.98;51.33
15694;BME280;7947;48.834;9.132;2023-08-07T11:09:16;98331.09;;;17.87;50.55
15694;BME280;7947;48.834;9.132;2023-08-07T11:12:20;98336.66;;;17.73;52.35
15694;BME280;7947;48.834;9.132;2023-08-07T11:15:23;98332.31;;;17.55;53.41
15694;BME280;7947;48.834;9.132;2023-08-07T11:18:26;98332.94;;;17.52;53.59
15694;BME280;7947;48.834;9.132;2023-08-07T11:21:31;98339.41;;;17.43;54.17
15694;BME280;7947;48.834;9.132;2023-08-07T11:24:35;98337.59;;;17.30;56.31
15694;BME280;7947;48.834;9.132;2023-08-07T11:27:38;98335.22;;;17.28;56.15
15694;BME280;7947;48.834;9.132;2023-08-07T11:30:41;98336.19;;;17.32;54.48
15694;BME280;7947;48.834;9.132;2023-08-07T11:33:44;98327.09;;;17.28;55.07
15694;BME280;7947;48.834;9.132;2023-08-07T11:36:48;98332.34;;;17.25;55.71
15694;BME280;7947;48.834;9.132;2023-08-07T11:39:51;98332.78;;;17.18;56.70
15694;BME280;7947;48.834;9.132;2023-08-07T11:42:54;98338.69;;;17.20;56.61
15694;BME280;7947;48.834;9.132;2023-08-07T11:45:59;98334.34;;;17.10;58.48
15694;BME280;7947;48.834;9.132;2023-08-07T11:49:02;98343.06;;;17.07;57.96
15694;BME280;7947;48.834;9.132;2023-08-07T11:52:08;98345.25;;;16.97;59.06
15694;BME280;7947;48.834;9.132;2023-08-07T11:55:14;98346.25;;;17.01;59.12
15694;BME280;7947;48.834;9.132;2023-08-07T11:58:17;98338.94;;;17.10;56.85
15694;BME280;7947;48.834;9.132;2023-08-07T12:01:22;98344.03;;;17.03;57.50
15694;BME280;7947;48.834;9.132;2023-08-07T12:04:25;98345.13;;;17.02;58.71
15694;BME280;7947;48.834;9.132;2023-08-07T12:07:30;98349.78;;;17.10;58.75
15694;BME280;7947;48.834;9.132;2023-08-07T12:10:35;98364.81;;;17.16;58.88
15694;BME280;7947;48.834;9.132;2023-08-07T12:13:39;98359.72;;;17.23;59.80
15694;BME280;7947;48.834;9.132;2023-08-07T12:16:44;98357.56;;;17.34;61.30
15694;BME280;7947;48.834;9.132;2023-08-07T12:19:49;98360.28;;;17.42;60.81
15694;BME280;7947;48.834;9.132;2023-08-07T12:22:54;98363.41;;;17.49;60.30
15694;BME280;7947;48.834;9.132;2023-08-07T12:25:57;98359.72;;;17.54;61.02
15694;BME280;7947;48.834;9.132;2023-08-07T12:29:00;98362.63;;;17.57;60.08
15694;BME280;7947;48.834;9.132;2023-08-07T12:32:03;98364.69;;;17.60;61.00
15694;BME280;7947;48.834;9.132;2023-08-07T12:35:07;98364.53;;;17.57;61.22
15694;BME280;7947;48.834;9.132;2023-08-07T12:38:14;98350.50;;;17.55;62.38
15694;BME280;7947;48.834;9.132;2023-08-07T12:41:19;98354.78;;;17.56;61.06
15694;BME280;7947;48.834;9.132;2023-08-07T12:44:24;98355.16;;;17.71;59.66
15694;BME280;7947;48.834;9.132;2023-08-07T12:47:28;98349.28;;;17.78;59.66
15694;BME280;7947;48.834;9.132;2023-08-07T12:50:31;98352.78;;;17.78;61.72
15694;BME280;7947;48.834;9.132;2023-08-07T12:53:35;98351.53;;;17.84;61.01
15694;BME280;7947;48.834;9.132;2023-08-07T12:56:38;98358.09;;;17.92;61.84
15694;BME280;7947;48.834;9.132;2023-08-07T12:59:41;98353.31;;;17.97;59.88
15694;BME280;7947;48.834;9.132;2023-08-07T13:02:45;98359.47;;;17.81;60.50
15694;BME280;7947;48.834;9.132;2023-08-07T13:05:49;98344.66;;;17.78;61.86
15694;BME280;7947;48.834;9.132;2023-08-07T13:08:53;98355.81;;;17.77;62.45
15694;BME280;7947;48.834;9.132;2023-08-07T13:11:56;98346.53;;;17.69;62.88
15694;BME280;7947;48.834;9.132;2023-08-07T13:14:59;98357.38;;;17.69;62.68
15694;BME280;7947;48.834;9.132;2023-08-07T13:18:02;98348.47;;;17.69;63.29
15694;BME280;7947;48.834;9.132;2023-08-07T13:21:06;98355.97;;;17.72;61.38
15694;BME280;7947;48.834;9.132;2023-08-07T13:24:10;98358.84;;;17.67;60.76
15694;BME280;7947;48.834;9.132;2023-08-07T13:27:13;98351.66;;;17.71;60.00
15694;BME280;7947;48.834;9.132;2023-08-07T13:30:16;98354.69;;;17.78;60.03
15694;BME280;7947;48.834;9.132;2023-08-07T13:33:19;98343.75;;;18.00;60.71
15694;BME280;7947;48.834;9.132;2023-08-07T13:36:22;98345.19;;;18.32;60.86
15694;BME280;7947;48.834;9.132;2023-08-07T13:39:26;98338.47;;;18.72;61.02
15694;BME280;7947;48.834;9.132;2023-08-07T13:42:30;98340.22;;;18.85;56.50
15694;BME280;7947;48.834;9.132;2023-08-07T13:45:33;98336.22;;;18.74;55.80
15694;BME280;7947;48.834;9.132;2023-08-07T13:48:35;98338.03;;;18.61;56.11
15694;BME280;7947;48.834;9.132;2023-08-07T13:51:39;98345.06;;;18.45;56.24
15694;BME280;7947;48.834;9.132;2023-08-07T13:54:43;98344.56;;;18.35;55.88
15694;BME280;7947;48.834;9.132;2023-08-07T13:57:46;98346.34;;;18.48;54.64
15694;BME280;7947;48.834;9.132;2023-08-07T14:00:49;98350.03;;;18.52;53.76
15694;BME280;7947;48.834;9.132;2023-08-07T14:03:52;98346.97;;;18.45;54.24
15694;BME280;7947;48.834;9.132;2023-08-07T14:06:55;98360.88;;;18.43;53.19
15694;BME280;7947;48.834;9.132;2023-08-07T14:09:59;98336.75;;;18.67;52.75
15694;BME280;7947;48.834;9.132;2023-08-07T14:13:02;98334.94;;;18.88;52.13
15694;BME280;7947;48.834;9.132;2023-08-07T14:16:05;98344.34;;;19.08;52.37
15694;BME280;7947;48.834;9.132;2023-08-07T14:19:08;98343.84;;;19.06;51.46
15694;BME280;7947;48.834;9.132;2023-08-07T14:22:11;98348.19;;;18.90;51.28
15694;BME280;7947;48.834;9.132;2023-08-07T14:25:16;98353.19;;;18.62;53.56
15694;BME280;7947;48.834;9.132;2023-08-07T14:28:19;98360.88;;;18.60;52.70
15694;BME280;7947;48.834;9.132;2023-08-07T14:31:22;98358.97;;;18.52;55.05
15694;BME280;7947;48.834;9.132;2023-08-07T14:34:25;98359.59;;;18.58;54.05
15694;BME280;7947;48.834;9.132;2023-08-07T14:37:28;98365.16;;;18.70;53.76
15694;BME280;7947;48.834;9.132;2023-08-07T14:40:32;98354.25;;;19.04;51.82
15694;BME280;7947;48.834;9.132;2023-08-07T14:43:35;98358.16;;;19.41;52.44
15694;BME280;7947;48.834;9.132;2023-08-07T14:46:38;98348.50;;;19.81;52.65
15694;BME280;7947;48.834;9.132;2023-08-07T14:49:40;98351.00;;;20.15;50.28
15694;BME280;7947;48.834;9.132;2023-08-07T14:52:44;98349.06;;;20.24;49.32
15694;BME280;7947;48.834;9.132;2023-08-07T14:55:48;98354.31;;;20.00;49.15
15694;BME280;7947;48.834;9.132;2023-08-07T14:58:51;98356.63;;;19.60;50.65
15694;BME280;7947;48.834;9.132;2023-08-07T15:01:54;98347.47;;;19.27;51.94
15694;BME280;7947;48.834;9.132;2023-08-07T15:04:57;98355.97;;;19.09;52.44
15694;BME280;7947;48.834;9.132;2023-08-07T15:08:01;98366.56;;;18.93;51.47
15694;BME280;7947;48.834;9.132;2023-08-07T15:11:06;98367.41;;;18.85;52.30
15694;BME280;7947;48.834;9.132;2023-08-07T15:14:09;98375.72;;;18.80;52.24
15694;BME280;7947;48.834;9.132;2023-08-07T15:17:12;98369.00;;;18.60;53.69
15694;BME280;7947;48.834;9.132;2023-08-07T15:20:15;98365.50;;;18.43;54.32
15694;BME280;7947;48.834;9.132;2023-08-07T15:23:18;98363.22;;;18.28;54.56
15694;BME280;7947;48.834;9.132;2023-08-07T15:26:22;98363.09;;;18.33;53.36
15694;BME280;7947;48.834;9.132;2023-08-07T15:29:26;98359.41;;;18.29;54.04
15694;BME280;7947;48.834;9.132;2023-08-07T15:32:28;98357.50;;;18.38;54.81
15694;BME280;7947;48.834;9.132;2023-08-07T15:35:31;98363.72;;;18.72;56.72
15694;BME280;7947;48.834;9.132;2023-08-07T15:38:34;98354.59;;;18.94;54.78
15694;BME280;7947;48.834;9.132;2023-08-07T15:41:41;98350.31;;;19.31;54.79
15694;BME280;7947;48.834;9.132;2023-08-07T15:44:44;98359.91;;;19.74;54.09
15694;BME280;7947;48.834;9.132;2023-08-07T15:47:47;98361.22;;;19.98;52.34
15694;BME280;7947;48.834;9.132;2023-08-07T15:50:50;98378.72;;;20.17;51.61
15694;BME280;7947;48.834;9.132;2023-08-07T15:53:53;98364.88;;;20.31;50.18
15694;BME280;7947;48.834;9.132;2023-08-07T15:57:00;98371.78;;;20.28;49.67
15694;BME280;7947;48.834;9.132;2023-08-07T16:00:05;98364.94;;;19.93;50.41
15694;BME280;7947;48.834;9.132;2023-08-07T16:03:09;98360.44;;;19.68;49.93
15694;BME280;7947;48.834;9.132;2023-08-07T16:06:13;98354.31;;;19.71;51.48
15694;BME280;7947;48.834;9.132;2023-08-07T16:09:16;98364.94;;;19.93;50.49
15694;BME280;7947;48.834;9.132;2023-08-07T16:12:20;98362.63;;;20.04;50.81
15694;BME280;7947;48.834;9.132;2023-08-07T16:15:23;98358.22;;;20.20;49.94
15694;BME280;7947;48.834;9.132;2023-08-07T16:18:26;98357.72;;;20.26;49.61
15694;BME280;7947;48.834;9.132;2023-08-07T16:21:30;98360.91;;;20.28;50.47
15694;BME280;7947;48.834;9.132;2023-08-07T16:24:33;98350.78;;;20.29;50.89